Time;durP1;ratioP1;P1;durP2;ratioP2;P2;SDS_P1;SDS_P2;PMS_P1;PMS_P2;Temp;Humidity;BMP_temperature;BMP_pressure;BME280_temperature;BME280_humidity;BME280_pressure;Samples;Min_cycle;Max_cycle;Signal;HPM_P1;HPM_P2
2023/05/04 00:00:04;;;;;;;4.53;3.83;;;7.20;99.90;;;-141.84;70.66;19569.97;5032758;28;20620;-64
2023/05/04 00:02:33;;;;;;;6.90;4.00;;;7.10;99.90;;;-141.84;70.71;19541.50;5032660;28;20228;-64
2023/05/04 00:05:03;;;;;;;5.20;3.87;;;7.10;99.90;;;-141.84;70.30;19535.41;5032302;28;20263;-64
2023/05/04 00:07:31;;;;;;;6.40;4.00;;;7.10;99.90;;;-141.84;70.10;19569.97;5032986;28;20236;-63
2023/05/04 00:09:59;;;;;;;5.07;4.17;;;7.10;99.90;;;-141.84;70.41;19533.38;5032654;28;20209;-65
2023/05/04 00:12:29;;;;;;;6.30;4.30;;;7.10;99.90;;;-141.84;71.20;19543.53;5032635;28;20202;-64
2023/05/04 00:14:57;;;;;;;7.33;4.20;;;7.10;99.90;;;-141.84;71.13;19541.50;5032501;28;20565;-63
2023/05/04 00:17:26;;;;;;;6.33;4.23;;;7.00;99.90;;;-141.84;71.73;19551.69;5032458;28;20200;-64
2023/05/04 00:19:54;;;;;;;5.20;3.87;;;7.00;99.90;;;-141.84;71.53;19525.25;5032310;28;20213;-64
2023/05/04 00:22:22;;;;;;;5.57;4.33;;;6.90;99.90;;;-141.84;71.19;19521.19;5032479;28;20206;-64
2023/05/04 00:24:50;;;;;;;5.80;4.20;;;6.90;99.90;;;-141.84;70.32;19559.81;5031962;28;20198;-64
2023/05/04 00:27:18;;;;;;;7.27;5.00;;;7.00;99.90;;;-141.84;70.46;19565.91;5031804;28;20237;-63
2023/05/04 00:29:48;;;;;;;6.33;4.07;;;7.00;99.90;;;-141.84;70.20;19541.50;5031921;28;20209;-65
2023/05/04 00:32:16;;;;;;;5.93;4.07;;;7.00;99.90;;;-141.84;69.47;19559.81;5032070;28;20222;-64
2023/05/04 00:34:44;;;;;;;7.00;4.27;;;7.00;99.90;;;-141.84;69.22;19533.38;5031748;28;20205;-64
2023/05/04 00:37:12;;;;;;;5.27;4.10;;;7.00;99.90;;;-141.84;69.57;19537.44;5032010;28;20669;-64
2023/05/04 00:39:40;;;;;;;5.67;4.37;;;7.00;99.90;;;-141.84;69.73;19525.25;5032109;28;20206;-64
2023/05/04 00:42:08;;;;;;;5.73;4.00;;;7.00;99.90;;;-141.84;69.46;19541.50;5031443;28;20570;-63
2023/05/04 00:44:40;;;;;;;6.30;4.50;;;7.00;99.90;;;-141.84;69.87;19533.38;5031288;28;20223;-64
2023/05/04 00:47:09;;;;;;;7.57;4.93;;;7.00;99.90;;;-141.84;69.78;19521.19;5032181;28;20250;-65
2023/05/04 00:49:38;;;;;;;7.27;4.43;;;7.00;99.90;;;-141.84;70.05;19537.44;5031846;28;20214;-64
2023/05/04 00:52:06;;;;;;;5.13;4.20;;;6.90;99.90;;;-141.84;70.39;19525.25;5031897;28;20232;-64
2023/05/04 00:54:35;;;;;;;6.10;4.10;;;6.90;99.90;;;-141.84;71.57;19496.81;5031919;28;20247;-64
2023/05/04 00:57:04;;;;;;;6.83;4.40;;;6.80;99.90;;;-141.84;72.67;19478.50;5031593;28;20221;-63
2023/05/04 00:59:33;;;;;;;8.30;5.23;;;6.70;99.90;;;-141.84;73.12;19482.56;5031799;28;20213;-65
2023/05/04 01:02:01;;;;;;;6.20;4.67;;;6.60;99.90;;;-141.84;73.38;19496.81;5031524;28;20689;-64
2023/05/04 01:04:30;;;;;;;5.80;4.73;;;6.60;99.90;;;-141.84;73.18;19466.31;5031758;28;20211;-64
2023/05/04 01:07:10;;;;;;;7.50;4.80;;;6.60;99.90;;;-141.84;72.63;19490.72;5031625;28;20242;-64
2023/05/04 01:09:47;;;;;;;6.57;4.50;;;6.60;99.90;;;-141.84;72.67;19490.72;5031581;28;20576;-64
2023/05/04 01:12:21;;;;;;;6.20;4.60;;;6.60;99.90;;;-141.84;72.69;19492.75;5031823;28;20319;-64
2023/05/04 01:14:52;;;;;;;7.63;4.87;;;6.60;99.90;;;-141.84;72.58;19480.53;5031670;28;20185;-65
2023/05/04 01:17:20;;;;;;;7.97;4.80;;;6.50;99.90;;;-141.84;72.14;19470.38;5031655;28;20182;-64
2023/05/04 01:19:52;;;;;;;5.37;4.87;;;6.60;99.90;;;-141.84;72.61;19486.66;5031297;28;20202;-64
2023/05/04 01:22:23;;;;;;;6.73;4.67;;;6.60;99.90;;;-141.84;72.29;19488.69;5031760;28;20614;-64
2023/05/04 01:24:51;;;;;;;8.00;4.23;;;6.60;99.90;;;-141.84;70.85;19466.31;5031699;28;20581;-66
2023/05/04 01:27:26;;;;;;;6.43;4.33;;;6.60;99.90;;;-141.84;70.39;19480.53;5031487;28;20234;-64
2023/05/04 01:30:02;;;;;;;5.97;4.77;;;6.60;99.90;;;-141.84;70.14;19496.81;5031983;28;20204;-64
2023/05/04 01:32:32;;;;;;;8.60;4.53;;;6.60;99.90;;;-141.84;69.82;19513.06;5031748;28;20225;-64
2023/05/04 01:35:01;;;;;;;6.33;4.83;;;6.70;99.90;;;-141.84;69.53;19509.00;5031165;28;20201;-64
2023/05/04 01:37:31;;;;;;;7.83;5.03;;;6.70;99.90;;;-141.84;70.34;19513.06;5031592;28;20213;-65
2023/05/04 01:39:59;;;;;;;6.33;4.40;;;6.70;99.90;;;-141.84;70.58;19498.84;5031484;28;20208;-63
2023/05/04 01:42:27;;;;;;;6.87;4.73;;;6.70;99.90;;;-141.84;71.48;19484.59;5030484;28;20572;-66
2023/05/04 01:44:55;;;;;;;9.00;5.13;;;6.60;99.90;;;-141.84;71.43;19480.53;5031090;28;20248;-64
2023/05/04 01:47:23;;;;;;;7.60;5.10;;;6.60;99.90;;;-141.84;70.53;19511.03;5031253;28;20206;-64
2023/05/04 01:49:52;;;;;;;7.87;4.80;;;6.60;99.90;;;-141.84;70.67;19519.16;5030856;28;20577;-64
2023/05/04 01:52:20;;;;;;;5.67;4.93;;;6.60;99.90;;;-141.84;70.86;19488.69;5031200;28;20445;-64
2023/05/04 01:54:49;;;;;;;6.70;4.80;;;6.60;99.90;;;-141.84;71.46;19482.56;5031467;28;20205;-64
2023/05/04 01:57:17;;;;;;;6.07;4.73;;;6.50;99.90;;;-141.84;72.49;19464.28;5030999;28;20916;-65
2023/05/04 01:59:45;;;;;;;7.47;5.03;;;6.40;99.90;;;-141.84;72.41;19437.88;5031488;28;20217;-64
2023/05/04 02:02:14;;;;;;;8.70;4.93;;;6.40;99.90;;;-141.84;71.74;19458.19;5031028;28;20264;-64
2023/05/04 02:04:42;;;;;;;8.27;5.10;;;6.40;99.90;;;-141.84;72.23;19458.19;5031364;28;20210;-64
2023/05/04 02:07:10;;;;;;;6.23;5.00;;;6.40;99.90;;;-141.84;72.80;19460.22;5031251;28;20212;-65
2023/05/04 02:09:38;;;;;;;6.53;4.90;;;6.30;99.90;;;-141.84;72.92;19466.31;5031307;28;20225;-64
2023/05/04 02:12:08;;;;;;;6.13;4.60;;;6.40;99.90;;;-141.84;72.44;19460.22;5031165;28;20225;-64
2023/05/04 02:14:36;;;;;;;7.93;4.57;;;6.30;99.90;;;-141.84;72.59;19458.19;5031795;28;20217;-64
2023/05/04 02:17:04;;;;;;;5.33;4.50;;;6.40;99.90;;;-141.84;73.03;19446.00;5034299;28;20674;-63
2023/05/04 02:19:32;;;;;;;6.97;4.90;;;6.30;99.90;;;-141.84;73.17;19448.03;5034718;28;20206;-64
2023/05/04 02:22:00;;;;;;;6.50;5.20;;;6.30;99.90;;;-141.84;73.88;19439.91;5034851;28;20206;-65
2023/05/04 02:24:29;;;;;;;8.30;5.93;;;6.20;99.90;;;-141.84;73.45;19433.81;5034724;28;20312;-64
2023/05/04 02:26:57;;;;;;;5.60;4.83;;;6.30;99.90;;;-141.84;72.65;19437.88;5034213;28;20724;-64
2023/05/04 02:29:26;;;;;;;7.47;5.10;;;6.20;99.90;;;-141.84;72.46;19454.13;5034789;28;20221;-64
2023/05/04 02:31:55;;;;;;;7.83;5.80;;;6.20;99.90;;;-141.84;73.37;19427.72;5034502;28;20207;-64
2023/05/04 02:34:24;;;;;;;6.97;5.20;;;6.10;99.90;;;-141.84;73.34;19423.66;5034454;28;20228;-65
2023/05/04 02:36:52;;;;;;;7.80;5.80;;;6.10;99.90;;;-141.84;72.65;19429.75;5034240;28;20201;-65
2023/05/04 02:39:21;;;;;;;8.00;5.70;;;6.20;99.90;;;-141.84;72.00;19472.41;5034445;28;20206;-65
2023/05/04 02:41:49;;;;;;;8.93;5.37;;;6.20;99.90;;;-141.84;72.04;19464.28;5033857;28;20215;-65
2023/05/04 02:44:17;;;;;;;9.97;6.10;;;6.20;99.90;;;-141.84;72.37;19435.84;5034403;28;20212;-64
2023/05/04 02:46:47;;;;;;;8.37;5.93;;;6.20;99.90;;;-141.84;72.55;19462.25;5034049;28;20206;-64
2023/05/04 02:49:15;;;;;;;9.60;5.90;;;6.20;99.90;;;-141.84;73.36;19429.75;5033749;28;20248;-64
2023/05/04 02:51:43;;;;;;;6.57;5.87;;;6.20;99.90;;;-141.84;73.55;19443.97;5033980;28;20221;-64
2023/05/04 02:54:11;;;;;;;8.67;6.03;;;6.20;99.90;;;-141.84;74.03;19464.28;5034193;28;20215;-64
2023/05/04 02:56:39;;;;;;;8.63;5.93;;;6.10;99.90;;;-141.84;74.31;19413.47;5033940;28;20204;-64
2023/05/04 02:59:07;;;;;;;10.77;6.70;;;6.10;99.90;;;-141.84;74.61;19454.13;5034104;28;20205;-65
2023/05/04 03:01:35;;;;;;;7.00;6.30;;;6.10;99.90;;;-141.84;75.09;19437.88;5033550;28;20224;-64
2023/05/04 03:04:07;;;;;;;9.90;7.03;;;6.10;99.90;;;-141.84;75.57;19421.63;5027028;28;20240;-64
2023/05/04 03:06:35;;;;;;;8.50;7.00;;;6.00;99.90;;;-141.84;76.12;19387.06;5014766;28;20212;-64
2023/05/04 03:09:04;;;;;;;8.83;7.30;;;6.00;99.90;;;-141.84;76.26;19407.38;5014094;28;20241;-64
2023/05/04 03:11:32;;;;;;;9.37;7.23;;;5.90;99.90;;;-141.84;76.02;19403.31;5014059;28;20212;-64
2023/05/04 03:14:00;;;;;;;9.67;6.87;;;5.90;99.90;;;-141.84;75.98;19435.84;5013914;28;20206;-65
2023/05/04 03:16:28;;;;;;;7.87;7.07;;;5.90;99.90;;;-141.84;76.37;19429.75;5013913;28;20201;-64
2023/05/04 03:18:57;;;;;;;8.07;7.07;;;5.90;99.90;;;-141.84;76.16;19391.13;5013744;28;20568;-65
2023/05/04 03:21:26;;;;;;;11.17;7.13;;;6.00;99.90;;;-141.84;76.21;19405.34;5013652;28;20205;-63
2023/05/04 03:23:54;;;;;;;10.13;7.13;;;6.00;99.90;;;-141.84;76.38;19391.13;5013799;28;20235;-66
2023/05/04 03:26:22;;;;;;;8.43;7.37;;;5.90;99.90;;;-141.84;76.63;19387.06;5012641;28;20304;-64
2023/05/04 03:28:50;;;;;;;8.13;7.17;;;5.90;99.90;;;-141.84;76.47;19399.25;5013514;28;20226;-53
2023/05/04 03:31:19;;;;;;;9.60;7.47;;;5.90;99.90;;;-141.84;76.91;19401.28;5013522;28;20216;-56
2023/05/04 03:33:47;;;;;;;9.00;7.27;;;5.90;99.90;;;-141.84;76.90;19372.84;5026682;28;20252;-53
2023/05/04 03:36:15;;;;;;;10.00;7.70;;;5.90;99.90;;;-141.84;77.13;19368.78;5033364;28;20220;-52
2023/05/04 03:38:45;;;;;;;8.80;7.43;;;5.80;99.90;;;-141.84;77.62;19431.78;5033102;28;20669;-52
2023/05/04 03:41:14;;;;;;;10.60;7.53;;;5.80;99.90;;;-141.84;76.85;19411.44;5033411;28;20186;-57
2023/05/04 03:43:42;;;;;;;9.20;6.83;;;5.90;99.90;;;-141.84;76.55;19417.56;5030476;28;20672;-55
2023/05/04 03:46:10;;;;;;;10.53;7.53;;;5.90;99.90;;;-141.84;76.58;19409.41;5013357;28;20213;-53
2023/05/04 03:48:39;;;;;;;8.47;7.40;;;5.90;99.90;;;-141.84;76.29;19431.78;5017726;28;20291;-54
2023/05/04 03:51:07;;;;;;;8.97;7.40;;;5.90;99.90;;;-141.84;76.26;19387.06;5032467;28;20574;-54
2023/05/04 03:53:35;;;;;;;10.63;7.00;;;5.90;99.90;;;-141.84;76.24;19366.75;5032923;28;20572;-55
2023/05/04 03:56:05;;;;;;;10.53;7.77;;;5.90;99.90;;;-141.84;75.51;19421.63;5033038;28;20611;-54
2023/05/04 03:58:33;;;;;;;8.47;7.43;;;6.00;99.90;;;-141.84;75.39;19433.81;5033106;28;20204;-52
2023/05/04 04:01:03;;;;;;;9.33;7.70;;;6.00;99.90;;;-141.84;75.58;19383.00;5032640;28;20208;-55
2023/05/04 04:03:31;;;;;;;9.10;7.90;;;6.00;99.90;;;-141.84;75.54;19411.44;5032291;28;20224;-56
2023/05/04 04:06:02;;;;;;;10.90;7.90;;;6.00;99.90;;;-141.84;74.84;19443.97;5032737;28;20229;-55
2023/05/04 04:08:30;;;;;;;9.90;8.27;;;6.10;99.90;;;-141.84;74.33;19417.56;5032641;28;20216;-54
2023/05/04 04:10:59;;;;;;;9.27;8.20;;;6.20;99.90;;;-141.84;74.06;19427.72;5032571;28;20328;-54
2023/05/04 04:13:29;;;;;;;10.70;7.67;;;;;;;-141.84;74.03;19427.72;5032298;28;20690;-54
2023/05/04 04:15:57;;;;;;;10.30;8.17;;;;;;;-141.84;74.32;19437.88;5032436;28;20585;-51
2023/05/04 04:18:25;;;;;;;10.27;8.60;;;6.20;99.90;;;-141.84;74.54;19454.13;5032331;28;20210;-55
2023/05/04 04:20:53;;;;;;;11.37;8.33;;;6.30;99.90;;;-141.84;74.15;19460.22;5032144;28;20685;-53
2023/05/04 04:23:22;;;;;;;10.73;7.63;;;6.40;99.90;;;-141.84;74.52;19439.91;5032435;28;20198;-52
2023/05/04 04:25:50;;;;;;;8.90;7.67;;;6.40;99.90;;;-141.84;74.32;19415.50;5032693;28;20205;-54
2023/05/04 04:28:18;;;;;;;8.30;7.20;;;6.40;99.90;;;-141.84;73.54;19478.50;5031934;28;20634;-56
2023/05/04 04:30:48;;;;;;;9.03;7.73;;;6.50;99.90;;;-141.84;73.75;19441.94;5031839;28;20232;-53
2023/05/04 04:33:16;;;;;;;9.23;7.87;;;6.60;99.90;;;-141.84;73.75;19439.91;5031818;28;20206;-55
2023/05/04 04:35:44;;;;;;;10.70;7.87;;;6.70;99.90;;;-141.84;73.41;19462.25;5032294;28;20209;-55
2023/05/04 04:38:12;;;;;;;9.63;7.63;;;6.70;99.90;;;-141.84;72.38;19492.75;5031620;28;20210;-54
2023/05/04 04:40:40;;;;;;;9.27;7.07;;;6.80;99.90;;;-141.84;72.35;19492.75;5031894;28;20677;-53
2023/05/04 04:43:09;;;;;;;9.73;6.77;;;6.90;99.90;;;-141.84;72.32;19504.94;5032238;28;20217;-55
2023/05/04 04:45:40;;;;;;;8.63;6.93;;;7.00;99.90;;;-141.84;71.85;19490.72;5032055;28;20217;-54
2023/05/04 04:48:10;;;;;;;8.20;7.07;;;7.10;99.90;;;-141.84;71.32;19494.78;5031737;28;20213;-54
2023/05/04 04:50:39;;;;;;;6.90;6.10;;;7.20;99.90;;;-141.84;70.68;19551.69;5031339;28;20645;-54
2023/05/04 04:53:07;;;;;;;9.17;6.43;;;7.30;99.90;;;-141.84;70.70;19565.91;5031458;28;20569;-55
2023/05/04 04:55:35;;;;;;;8.97;6.03;;;7.60;99.90;;;-141.84;67.68;19700.03;5031713;28;20205;-57
2023/05/04 04:58:03;;;;;;;7.20;6.30;;;8.10;99.90;;;-141.84;65.13;19830.09;5031580;28;20606;-54
2023/05/04 05:00:32;;;;;;;6.47;5.87;;;8.80;99.90;;;-141.84;59.13;20045.53;5031765;28;20202;-54
2023/05/04 05:03:00;;;;;;;7.87;5.40;;;9.80;99.90;;;-141.84;54.03;20220.34;5031186;28;20720;-53
2023/05/04 05:05:30;;;;;;;9.07;5.70;;;10.60;99.90;;;-141.84;50.27;20399.19;5031740;28;20210;-55
2023/05/04 05:07:59;;;;;;;11.80;6.60;;;11.40;99.90;;;-141.84;47.89;20492.72;5031860;28;20197;-57
2023/05/04 05:10:27;;;;;;;6.10;5.27;;;11.90;99.90;;;-141.84;47.83;20456.13;5031549;28;20226;-57
2023/05/04 05:12:55;;;;;;;14.47;13.17;;;12.20;99.90;;;-141.84;48.38;20342.28;5031611;28;20209;-53
2023/05/04 05:15:23;;;;;;;8.57;6.43;;;12.20;99.90;;;-141.84;50.40;20242.69;5031275;28;20252;-53
2023/05/04 05:17:51;;;;;;;5.70;5.10;;;11.70;99.90;;;-141.84;51.68;20151.22;5031207;28;20543;-54
2023/05/04 05:20:20;;;;;;;6.30;5.70;;;11.60;99.90;;;-141.84;52.78;20076.03;5031078;28;20747;-52
2023/05/04 05:22:50;;;;;;;7.83;5.73;;;11.40;99.90;;;-141.84;54.12;20017.09;5031307;28;20340;-54
2023/05/04 05:25:19;;;;;;;8.70;5.90;;;11.30;99.90;;;-141.84;54.87;20015.03;5031239;28;20201;-53
2023/05/04 05:27:47;;;;;;;7.33;5.60;;;11.20;99.90;;;-141.84;55.68;19998.78;5031203;28;20238;-52
2023/05/04 05:30:16;;;;;;;7.30;5.50;;;11.10;99.90;;;-141.84;55.29;19994.72;5030834;28;20728;-54
2023/05/04 05:32:45;;;;;;;8.63;6.00;;;11.10;99.90;;;-141.84;55.10;19980.50;5030843;28;20664;-53
2023/05/04 05:35:16;;;;;;;5.60;5.00;;;11.00;99.90;;;-141.84;54.74;20045.53;5031401;28;20412;-53
2023/05/04 05:37:44;;;;;;;9.10;5.27;;;11.20;99.90;;;-141.84;54.41;20047.56;5031508;28;20213;-53
2023/05/04 05:40:14;;;;;;;7.33;6.13;;;11.30;99.90;;;-141.84;55.25;20045.53;5031406;28;20606;-54
2023/05/04 05:42:42;;;;;;;8.07;5.60;;;11.30;99.90;;;-141.84;53.82;20055.69;5031434;28;20260;-54
2023/05/04 05:45:12;;;;;;;9.73;6.10;;;11.40;99.90;;;-141.84;53.98;20002.84;5031600;28;20210;-53
2023/05/04 05:47:40;;;;;;;7.07;5.53;;;11.30;99.90;;;-141.84;54.74;20055.69;5031153;28;20236;-53
2023/05/04 05:50:09;;;;;;;6.83;5.37;;;11.40;99.90;;;-141.84;53.98;20080.09;5032496;28;20222;-50
2023/05/04 05:52:37;;;;;;;6.03;5.30;;;11.50;99.90;;;-141.84;53.72;20080.09;5035084;28;20286;-55
2023/05/04 05:55:06;;;;;;;8.30;4.93;;;11.60;99.90;;;-141.84;53.32;20086.19;5035375;28;20206;-53
2023/05/04 05:57:36;;;;;;;6.17;5.43;;;11.70;99.90;;;-141.84;52.89;20116.66;5035167;28;20285;-52
2023/05/04 06:00:07;;;;;;;8.80;5.67;;;11.90;99.90;;;-141.84;52.08;20126.84;5034902;28;20202;-52
2023/05/04 06:02:35;;;;;;;8.10;6.33;;;12.10;99.90;;;-141.84;52.66;20151.22;5034608;28;20754;-54
2023/05/04 06:05:04;;;;;;;8.47;5.90;;;12.30;99.90;;;-141.84;51.86;20171.56;5034666;28;20226;-55
2023/05/04 06:07:32;;;;;;;7.30;5.77;;;12.30;99.90;;;-141.84;51.64;20177.66;5035240;28;20208;-53
2023/05/04 06:10:00;;;;;;;8.23;5.70;;;12.40;99.90;;;-141.84;51.59;20200.00;5034484;28;20233;-53
2023/05/04 06:12:29;;;;;;;6.90;5.30;;;12.50;99.90;;;-141.84;51.61;20218.31;5034822;28;20301;-54
2023/05/04 06:14:58;;;;;;;7.77;5.20;;;12.70;99.90;;;-141.84;51.13;20273.19;5034486;28;20610;-50
2023/05/04 06:17:27;;;;;;;6.23;4.93;;;12.80;99.90;;;-141.84;49.93;20224.41;5034673;28;20205;-54
2023/05/04 06:19:55;;;;;;;6.00;5.40;;;12.80;99.90;;;-141.84;49.99;20197.97;5034514;28;20201;-54
2023/05/04 06:22:23;;;;;;;6.00;5.10;;;12.80;99.90;;;-141.84;50.46;20265.03;5034327;28;20494;-53
2023/05/04 06:24:51;;;;;;;7.87;5.50;;;12.80;99.90;;;-141.84;50.31;20244.72;5034560;28;20230;-53
2023/05/04 06:27:24;;;;;;;7.17;4.87;;;12.90;99.90;;;-141.84;49.86;20236.59;5034236;28;20321;-52
2023/05/04 06:29:52;;;;;;;7.07;5.30;;;12.90;99.90;;;-141.84;49.92;20246.75;5034399;28;20213;-54
2023/05/04 06:32:22;;;;;;;9.20;5.03;;;13.00;99.90;;;-141.84;49.65;20303.66;5033860;28;20403;-49
2023/05/04 06:34:54;;;;;;;6.17;4.87;;;13.00;99.90;;;-141.84;49.49;20279.28;5034331;28;20198;-53
2023/05/04 06:37:22;;;;;;;6.43;5.23;;;13.10;99.90;;;-141.84;49.15;20285.38;5034594;28;20197;-55
2023/05/04 06:39:50;;;;;;;5.77;4.93;;;13.10;99.90;;;-141.84;49.78;20299.59;5033876;28;20591;-53
2023/05/04 06:42:18;;;;;;;8.30;5.00;;;13.20;99.90;;;-141.84;49.91;20295.53;5034033;28;20202;-55
2023/05/04 06:44:46;;;;;;;8.90;5.33;;;13.30;99.90;;;-141.84;50.05;20305.69;5033948;28;20578;-53
2023/05/04 06:47:14;;;;;;;6.63;5.20;;;13.40;99.90;;;-141.84;49.36;20346.34;5033983;28;20208;-54
2023/05/04 06:49:44;;;;;;;7.37;4.97;;;13.50;99.90;;;-141.84;49.10;20350.41;5032586;28;20264;-56
2023/05/04 06:52:13;;;;;;;5.93;5.03;;;13.60;99.90;;;-141.84;48.33;20380.91;5032645;28;20252;-55
2023/05/04 06:54:41;;;;;;;6.83;4.87;;;13.70;99.90;;;-141.84;47.76;20401.22;5033960;28;20206;-54
2023/05/04 06:57:09;;;;;;;6.73;5.00;;;13.70;99.90;;;-141.84;47.91;20368.72;5032556;28;20206;-54
2023/05/04 06:59:37;;;;;;;5.38;4.25;;;13.70;99.90;;;-141.84;48.69;20421.56;5034056;28;20241;-54
2023/05/04 07:02:05;;;;;;;7.70;5.00;;;13.80;99.90;;;-141.84;48.67;20405.31;5033487;28;20209;-55
2023/05/04 07:04:33;;;;;;;7.38;4.65;;;13.80;99.90;;;-141.84;48.23;20411.41;5033808;28;20213;-54
2023/05/04 07:07:03;;;;;;;6.95;4.97;;;13.90;99.90;;;-141.84;46.90;20447.97;5033577;28;20206;-52
2023/05/04 07:09:31;;;;;;;6.20;4.68;;;13.90;99.90;;;-141.84;46.86;20411.41;5033358;28;20673;-51
2023/05/04 07:11:59;;;;;;;6.68;4.97;;;13.90;99.90;;;-141.84;47.43;20427.66;5032828;28;20251;-51
2023/05/04 07:14:27;;;;;;;8.95;5.28;;;13.90;99.90;;;-141.84;46.95;20417.50;5033221;28;20213;-53
2023/05/04 07:16:55;;;;;;;5.70;4.70;;;13.80;99.90;;;-141.84;47.09;20421.56;5033146;28;20206;-54
2023/05/04 07:19:23;;;;;;;9.20;4.95;;;13.90;99.90;;;-141.84;46.81;20411.41;5032678;28;20213;-54
2023/05/04 07:21:51;;;;;;;6.72;4.70;;;13.90;99.90;;;-141.84;46.22;20425.63;5032891;28;20202;-52
2023/05/04 07:24:21;;;;;;;9.80;4.43;;;13.90;99.90;;;-141.84;46.32;20423.59;5033208;28;20198;-52
2023/05/04 07:26:49;;;;;;;7.47;4.80;;;13.90;99.90;;;-141.84;46.52;20423.59;5032951;28;20230;-56
2023/05/04 07:29:17;;;;;;;5.43;4.55;;;13.90;99.90;;;-141.84;46.49;20415.47;5033445;28;20209;-55
2023/05/04 07:31:45;;;;;;;9.30;4.60;;;14.00;99.90;;;-141.84;46.26;20472.38;5032732;28;20222;-52
2023/05/04 07:34:13;;;;;;;6.13;4.47;;;14.00;99.90;;;-141.84;46.26;20445.94;5033117;28;20202;-54
2023/05/04 07:36:41;;;;;;;6.33;4.50;;;14.10;99.90;;;-141.84;46.23;20454.09;5033232;28;20217;-53
2023/05/04 07:39:11;;;;;;;6.07;4.35;;;14.20;99.90;;;-141.84;46.31;20525.22;5033057;28;20662;-54
2023/05/04 07:41:40;;;;;;;8.25;5.20;;;14.20;99.90;;;-141.84;45.86;20513.03;5033161;28;20198;-53
2023/05/04 07:44:10;;;;;;;7.63;4.75;;;14.30;99.90;;;-141.84;45.68;20527.25;5033274;28;20206;-51
2023/05/04 07:46:38;;;;;;;6.78;4.75;;;14.40;99.90;;;-141.84;45.29;20500.84;5032856;28;20202;-56
2023/05/04 07:49:06;;;;;;;6.95;4.43;;;14.50;99.90;;;-141.84;44.13;20523.19;5032576;28;20650;-56
2023/05/04 07:51:35;;;;;;;8.02;4.78;;;14.50;99.90;;;-141.84;44.43;20561.81;5032749;28;20222;-52
2023/05/04 07:54:03;;;;;;;4.53;3.72;;;14.60;99.90;;;-141.84;44.47;20541.50;5032557;28;20670;-52
2023/05/04 07:56:31;;;;;;;5.90;4.30;;;14.60;99.90;;;-141.84;43.83;20596.38;5032723;28;20205;-56
2023/05/04 07:59:01;;;;;;;7.18;4.10;;;14.70;99.90;;;-141.84;44.28;20567.91;5032772;28;20210;-53
2023/05/04 08:01:29;;;;;;;5.30;3.92;;;14.70;99.90;;;-141.84;43.16;20574.00;5032361;28;20201;-55
2023/05/04 08:03:57;;;;;;;5.10;4.00;;;14.80;99.90;;;-141.84;43.84;20559.78;5032618;28;20206;-53
2023/05/04 08:06:25;;;;;;;5.68;4.20;;;14.80;99.90;;;-141.84;43.40;20582.16;5032544;28;20209;-53
2023/05/04 08:08:53;;;;;;;5.25;4.43;;;14.80;99.90;;;-141.84;43.64;20606.53;5032554;28;20206;-55
2023/05/04 08:11:21;;;;;;;6.03;4.18;;;14.90;99.90;;;-141.84;43.41;20628.91;5032542;28;20616;-51
2023/05/04 08:13:50;;;;;;;4.38;3.60;;;15.00;99.90;;;-141.84;42.46;20596.38;5031904;28;20209;-54
2023/05/04 08:16:20;;;;;;;3.80;3.50;;;15.10;99.90;;;-141.84;42.25;20663.47;5032207;28;20206;-51
2023/05/04 08:18:48;;;;;;;6.75;3.50;;;15.20;99.90;;;-141.84;42.29;20651.25;5031821;28;20741;-51
2023/05/04 08:21:16;;;;;;;6.65;4.10;;;15.10;99.90;;;-141.84;42.62;20679.72;5032238;28;20587;-52
2023/05/04 08:23:44;;;;;;;6.25;3.85;;;15.20;99.90;;;-141.84;42.11;20702.09;5032314;28;20205;-55
2023/05/04 08:26:12;;;;;;;6.60;4.05;;;15.30;99.90;;;-141.84;41.70;20695.97;5032367;28;20208;-56
2023/05/04 08:28:41;;;;;;;4.28;3.35;;;15.30;99.90;;;-141.84;41.45;20748.84;5032315;28;20193;-54
2023/05/04 08:31:09;;;;;;;6.03;4.00;;;15.50;99.90;;;-141.84;41.84;20765.09;5031858;28;20753;-51
2023/05/04 08:33:39;;;;;;;4.70;3.75;;;15.60;99.90;;;-141.84;41.79;20763.06;5031939;28;20209;-56
2023/05/04 08:36:08;;;;;;;5.13;3.63;;;15.60;99.90;;;-141.84;41.46;20797.63;5032226;28;20210;-55
2023/05/04 08:38:36;;;;;;;7.10;3.92;;;15.70;99.90;;;-141.84;41.49;20789.50;5032143;28;20316;-55
2023/05/04 08:41:06;;;;;;;6.30;3.95;;;15.80;99.90;;;-141.84;40.67;20799.66;5032181;28;20574;-53
2023/05/04 08:43:36;;;;;;;4.75;3.75;;;15.90;99.90;;;-141.84;40.69;20822.03;5032055;28;20229;-50
2023/05/04 08:46:05;;;;;;;7.18;4.43;;;15.90;99.90;;;-141.84;40.99;20815.91;5031670;28;20658;-51
2023/05/04 08:48:34;;;;;;;9.77;4.07;;;16.00;99.90;;;-141.84;41.26;20848.44;5031727;28;20576;-50
2023/05/04 08:51:06;;;;;;;7.53;3.95;;;16.10;99.90;;;-141.84;39.82;20836.25;5031975;28;20199;-52
2023/05/04 08:53:39;;;;;;;6.28;3.88;;;16.10;99.90;;;-141.84;39.79;20891.13;5031885;28;20189;-54
2023/05/04 08:56:11;;;;;;;8.48;3.40;;;16.20;99.90;;;-141.84;39.60;20872.84;5031889;28;20202;-53
2023/05/04 08:58:48;;;;;;;4.40;3.72;;;16.30;99.90;;;-141.84;40.07;20876.91;5031803;28;20190;-55
2023/05/04 09:01:18;;;;;;;5.18;3.53;;;16.30;99.90;;;-141.84;39.50;20891.13;5031930;28;20188;-56
2023/05/04 09:03:48;;;;;;;4.68;3.55;;;16.30;99.90;;;-141.84;39.45;20950.09;5031860;28;20452;-52
2023/05/04 09:06:19;;;;;;;4.82;3.33;;;16.40;99.90;;;-141.84;39.35;20952.13;5031893;28;20236;-53
2023/05/04 09:08:47;;;;;;;5.78;3.78;;;16.50;99.90;;;-141.84;39.58;20923.66;5031385;28;20626;-53
2023/05/04 09:11:15;;;;;;;4.00;3.30;;;16.50;99.90;;;-141.84;38.72;20992.78;5031300;28;20452;-57
2023/05/04 09:13:44;;;;;;;4.97;3.60;;;16.70;99.90;;;-141.84;39.40;20958.22;5031492;28;20202;-55
2023/05/04 09:16:13;;;;;;;5.30;3.40;;;16.90;99.90;;;-141.84;38.47;20990.75;5031305;28;20217;-56
2023/05/04 09:18:44;;;;;;;4.30;3.35;;;17.00;99.90;;;-141.84;39.06;20952.13;5031355;28;20205;-51
2023/05/04 09:21:12;;;;;;;4.85;3.88;;;16.90;99.90;;;-141.84;39.44;20984.66;5031432;28;20641;-50
2023/05/04 09:23:51;;;;;;;4.03;3.10;;;16.90;99.90;;;-141.84;39.97;20978.56;5031532;28;20281;-52
2023/05/04 09:26:29;;;;;;;6.47;3.50;;;16.90;99.90;;;-141.84;38.72;21037.50;5035123;28;20272;-54
2023/05/04 09:29:10;;;;;;;6.85;3.60;;;17.10;99.90;;;-141.84;38.77;21017.19;5035578;28;20198;-55
2023/05/04 09:31:46;;;;;;;8.70;3.55;;;17.30;99.90;;;-141.84;38.15;21086.31;5035555;28;20186;-51
2023/05/04 09:34:15;;;;;;;4.80;3.40;;;17.40;99.90;;;-141.84;37.63;21098.50;5035360;28;20575;-53
2023/05/04 09:36:43;;;;;;;4.63;3.58;;;17.50;99.90;;;-141.84;37.34;21086.31;5035546;28;20206;-53
2023/05/04 09:39:15;;;;;;;5.53;3.45;;;17.50;99.90;;;-141.84;36.75;21124.94;5035451;28;20229;-55
2023/05/04 09:41:43;;;;;;;3.65;3.05;;;17.50;99.90;;;-141.84;36.61;21061.91;5035539;28;20240;-58
2023/05/04 09:44:20;;;;;;;5.00;3.33;;;17.30;99.90;;;-141.84;37.54;21057.84;5035389;28;20201;-51
2023/05/04 09:46:55;;;;;;;5.35;3.50;;;17.40;99.90;;;-141.84;37.14;21106.63;5034994;28;20190;-55
2023/05/04 09:49:31;;;;;;;4.47;3.25;;;17.40;99.90;;;-141.84;36.60;21053.78;5034554;28;20689;-56
2023/05/04 09:52:01;;;;;;;4.80;3.40;;;17.30;99.90;;;-141.84;37.36;21009.03;5034723;28;20599;-54
2023/05/04 09:54:35;;;;;;;6.72;3.83;;;17.20;99.90;;;-141.84;37.86;21015.16;5035179;28;20191;-56
2023/05/04 09:57:12;;;;;;;6.97;3.60;;;17.20;99.90;;;-141.84;37.83;21039.53;5034805;28;20202;-53
2023/05/04 09:59:42;;;;;;;4.05;3.30;;;17.20;99.90;;;-141.84;37.50;21047.69;5035121;28;20186;-55
2023/05/04 10:02:11;;;;;;;5.10;3.47;;;17.30;99.90;;;-141.84;37.36;21088.34;5035026;28;20198;-52
2023/05/04 10:04:51;;;;;;;6.45;4.00;;;17.40;99.90;;;-141.84;37.38;21086.31;5034825;28;20217;-55
2023/05/04 10:07:20;;;;;;;6.68;3.63;;;17.30;99.90;;;-141.84;36.91;21068.00;5034666;28;20275;-52
2023/05/04 10:09:51;;;;;;;3.80;3.40;;;17.30;99.90;;;-141.84;36.95;21100.53;5034790;28;20209;-53
2023/05/04 10:12:19;;;;;;;4.80;3.45;;;17.30;99.90;;;-141.84;37.33;21116.78;5034789;28;20206;-53
2023/05/04 10:14:47;;;;;;;8.18;3.70;;;17.40;99.90;;;-141.84;37.04;21129.00;5034755;28;20198;-53
2023/05/04 10:17:31;;;;;;;6.00;4.60;;;17.40;99.90;;;-141.84;37.40;21137.13;5034844;28;20213;-54